Time;durP1;ratioP1;P1;durP2;ratioP2;P2;SDS_P1;SDS_P2;PMS_P1;PMS_P2;Temp;Humidity;BMP_temperature;BMP_pressure;BME280_temperature;BME280_humidity;BME280_pressure;Samples;Min_cycle;Max_cycle;Signal;HPM_P1;HPM_P2
2023/11/06 00:00:08;;;;;;;8.10;5.33;;;9.60;99.90;;;;;;4941104;28;20207;-83
2023/11/06 00:02:48;;;;;;;7.57;4.57;;;9.40;99.90;;;;;;4939836;28;20237;-84
2023/11/06 00:05:24;;;;;;;10.63;4.80;;;9.60;99.90;;;;;;4955450;28;20229;-83
2023/11/06 00:07:58;;;;;;;7.47;4.63;;;9.30;99.90;;;;;;4955396;28;20644;-84
2023/11/06 00:10:28;;;;;;;6.87;3.80;;;9.50;99.90;;;;;;4955381;28;20200;-82
2023/11/06 00:12:56;;;;;;;7.90;4.50;;;9.30;99.90;;;;;;4970245;28;20442;-82
2023/11/06 00:15:40;;;;;;;6.00;4.00;;;9.50;99.90;;;;;;4986685;28;20256;-82
2023/11/06 00:18:10;;;;;;;5.87;3.90;;;9.60;99.90;;;;;;5029741;28;20237;-83
2023/11/06 00:20:44;;;;;;;7.63;4.33;;;9.50;99.90;;;;;;5067588;28;20677;-82
2023/11/06 00:23:24;;;;;;;5.60;3.70;;;9.60;99.90;;;;;;5050164;28;20203;-83
2023/11/06 00:26:19;;;;;;;5.83;3.77;;;9.60;99.90;;;;;;5051133;28;20609;-82
2023/11/06 00:29:09;;;;;;;6.07;3.83;;;9.50;99.90;;;;;;5034275;28;20290;-82
2023/11/06 00:31:45;;;;;;;6.93;3.80;;;9.60;99.90;;;;;;5033991;28;20674;-83
2023/11/06 00:34:24;;;;;;;5.40;3.57;;;9.40;99.90;;;;;;5035132;28;20309;-83
2023/11/06 00:37:15;;;;;;;6.27;3.53;;;9.60;99.90;;;;;;5050698;28;20287;-83
2023/11/06 00:39:47;;;;;;;5.17;3.23;;;9.60;99.90;;;;;;5050046;28;20208;-82
2023/11/06 00:42:50;;;;;;;5.20;3.33;;;9.60;99.90;;;;;;5034428;28;20306;-83
2023/11/06 00:45:58;;;;;;;6.77;3.30;;;9.60;99.90;;;;;;5035006;28;20230;-83
2023/11/06 00:49:15;;;;;;;4.80;3.30;;;9.60;99.90;;;;;;5035291;28;20222;-83
2023/11/06 00:56:55;;;;;;;4.40;2.93;;;9.70;99.90;;;;;;4989015;28;20230;-84
2023/11/06 19:15:42;;;;;;;4.70;2.30;;;9.40;99.90;;;;;;6363514;22;20182;-81
2023/11/06 19:35:34;;;;;;;5.23;2.90;;;9.30;99.90;;;;;;6373825;22;20696;-86
2023/11/06 19:38:23;;;;;;;5.57;2.80;;;9.50;99.90;;;;;;6299275;22;20179;-84
2023/11/06 19:52:05;;;;;;;;;;;;;;;;;;;;;
2023/11/06 20:18:55;;;;;;;;;;;;;;;;;;;;;
2023/11/06 20:25:58;;;;;;;;;;;;;;;;;;;;;
2023/11/06 20:32:25;;;;;;;;;;;;;;;;;;;;;
2023/11/06 20:35:27;;;;;;;8.73;3.30;;;9.90;99.90;;;;;;5989014;23;20619;-80
2023/11/06 20:38:09;;;;;;;7.63;3.27;;;10.20;99.90;;;;;;5989016;23;20227;-79
2023/11/06 20:51:41;;;;;;;9.37;3.60;;;10.10;99.90;;;;;;5874443;24;20679;-84
2023/11/06 20:54:31;;;;;;;5.90;3.30;;;9.90;99.90;;;;;;5854727;24;20243;-83
2023/11/06 21:00:52;;;;;;;8.80;3.27;;;10.20;99.90;;;;;;5853015;24;20201;-78
2023/11/06 21:03:26;;;;;;;9.13;3.80;;;10.00;99.90;;;;;;5852722;24;20224;-78
2023/11/06 21:06:14;;;;;;;7.30;3.27;;;10.10;99.90;;;;;;5851457;24;20162;-78
2023/11/06 21:08:42;;;;;;;6.87;3.40;;;10.10;99.90;;;;;;5828989;24;20166;-78
2023/11/06 21:11:08;;;;;;;9.00;3.60;;;10.10;99.90;;;;;;5851004;24;20178;-79
2023/11/06 21:13:43;;;;;;;7.57;3.37;;;10.10;99.90;;;;;;5847399;24;20580;-78
2023/11/06 21:16:14;;;;;;;5.37;3.00;;;10.20;99.90;;;;;;5852841;24;20474;-77
2023/11/06 21:19:00;;;;;;;9.27;3.40;;;10.20;99.90;;;;;;5914010;24;20256;-85
2023/11/06 21:21:43;;;;;;;9.63;3.50;;;10.10;99.90;;;;;;5924100;24;20270;-80
2023/11/06 21:25:00;;;;;;;7.73;3.43;;;10.20;99.90;;;;;;5923348;24;20495;-85
2023/11/06 21:27:31;;;;;;;9.90;3.70;;;10.20;99.90;;;;;;5902242;24;20273;-79
2023/11/06 21:30:18;;;;;;;9.30;3.70;;;10.20;99.90;;;;;;5924143;24;20260;-78
2023/11/06 21:32:51;;;;;;;7.17;3.60;;;10.20;99.90;;;;;;5894874;24;20678;-79
2023/11/06 21:35:20;;;;;;;8.23;3.50;;;10.20;99.90;;;;;;5895574;24;20250;-79
2023/11/06 21:37:50;;;;;;;8.60;3.83;;;10.20;99.90;;;;;;6113872;23;20175;-78
2023/11/06 21:40:19;;;;;;;7.30;3.33;;;10.20;99.90;;;;;;6157638;23;20222;-79
2023/11/06 21:42:56;;;;;;;7.20;3.20;;;10.30;99.90;;;;;;6184161;23;20219;-78
2023/11/06 21:45:28;;;;;;;6.93;3.43;;;10.30;99.90;;;;;;6183989;23;20200;-78
2023/11/06 21:48:08;;;;;;;7.17;3.20;;;10.20;99.90;;;;;;6157290;23;20607;-78
2023/11/06 21:50:39;;;;;;;6.80;3.10;;;10.20;99.90;;;;;;6184181;23;20167;-85
2023/11/06 21:53:09;;;;;;;8.60;3.53;;;10.30;99.90;;;;;;6184590;23;20608;-84
2023/11/06 21:55:42;;;;;;;6.63;3.20;;;10.30;99.90;;;;;;6158016;23;20167;-85
2023/11/06 21:58:17;;;;;;;7.83;3.37;;;10.30;99.90;;;;;;6158139;23;20156;-81
2023/11/06 22:00:58;;;;;;;5.37;2.80;;;10.60;99.90;;;;;;6183155;23;20242;-79
2023/11/06 22:03:28;;;;;;;6.17;2.83;;;10.30;99.90;;;;;;6184734;23;20234;-78
2023/11/06 22:06:09;;;;;;;5.10;2.93;;;10.30;99.90;;;;;;6185000;23;20170;-76
2023/11/06 22:08:38;;;;;;;7.23;2.90;;;10.50;99.90;;;;;;6184185;23;20224;-78
2023/11/06 22:11:09;;;;;;;5.07;2.70;;;10.60;99.90;;;;;;6183680;23;20539;-76
2023/11/06 22:13:36;;;;;;;7.27;2.73;;;10.30;99.90;;;;;;6184333;23;20198;-78
2023/11/06 22:16:09;;;;;;;5.23;2.83;;;10.30;99.90;;;;;;6182856;23;20167;-79
2023/11/06 22:18:42;;;;;;;6.07;2.80;;;10.30;99.90;;;;;;6181669;23;20200;-81
2023/11/06 22:21:11;;;;;;;5.40;2.77;;;10.30;99.90;;;;;;6133281;23;20568;-86
2023/11/06 22:23:51;;;;;;;5.90;2.73;;;10.30;99.90;;;;;;6183128;23;20171;-79
2023/11/06 22:26:22;;;;;;;4.90;2.63;;;10.40;99.90;;;;;;6158316;23;20602;-78
2023/11/06 22:28:56;;;;;;;6.73;2.67;;;10.40;99.90;;;;;;6157931;23;20626;-79
2023/11/06 22:31:35;;;;;;;6.47;2.73;;;10.40;99.90;;;;;;6180190;23;20669;-85
2023/11/06 22:34:02;;;;;;;7.97;2.70;;;10.40;99.90;;;;;;6159503;23;20191;-79
2023/11/06 22:36:30;;;;;;;4.43;2.57;;;10.40;99.90;;;;;;6185360;23;20167;-80
2023/11/06 22:38:57;;;;;;;7.73;2.73;;;10.40;99.90;;;;;;6158918;23;20248;-79
2023/11/06 22:41:24;;;;;;;5.93;2.30;;;10.40;99.90;;;;;;6185251;23;20188;-80
2023/11/06 22:43:51;;;;;;;6.93;2.90;;;10.40;99.90;;;;;;6158643;23;20195;-79
2023/11/06 22:46:18;;;;;;;6.27;2.70;;;10.40;99.90;;;;;;6184925;23;20171;-80
2023/11/06 22:48:45;;;;;;;7.00;2.53;;;10.40;99.90;;;;;;6158773;23;20241;-79
2023/11/06 22:51:13;;;;;;;9.67;2.73;;;10.50;99.90;;;;;;6185197;23;20254;-79
2023/11/06 22:53:40;;;;;;;5.30;2.70;;;10.50;99.90;;;;;;6185314;23;20171;-80
2023/11/06 22:56:07;;;;;;;7.80;2.70;;;10.50;99.90;;;;;;6158621;23;20172;-85
2023/11/06 22:58:35;;;;;;;3.90;2.10;;;10.50;99.90;;;;;;6158623;23;20164;-84
2023/11/06 23:01:02;;;;;;;6.60;2.90;;;10.50;99.90;;;;;;6158686;23;20178;-84
2023/11/06 23:03:29;;;;;;;5.40;2.50;;;10.40;99.90;;;;;;6184591;23;20180;-85
2023/11/06 23:05:56;;;;;;;6.47;2.80;;;10.70;99.90;;;;;;6158954;23;20222;-85
2023/11/06 23:08:23;;;;;;;5.67;2.40;;;10.40;99.90;;;;;;6184811;23;20166;-82
2023/11/06 23:10:51;;;;;;;6.20;2.30;;;10.30;99.90;;;;;;6184707;23;20163;-82
2023/11/06 23:13:19;;;;;;;5.40;2.13;;;10.30;99.90;;;;;;6185092;23;20199;-83
2023/11/06 23:15:46;;;;;;;7.73;3.00;;;10.30;99.90;;;;;;6134071;23;20171;-83
2023/11/06 23:18:13;;;;;;;5.70;2.67;;;10.30;99.90;;;;;;6158254;23;20226;-82
2023/11/06 23:20:41;;;;;;;7.27;2.50;;;10.30;99.90;;;;;;6184640;23;20187;-83
2023/11/06 23:23:10;;;;;;;6.03;2.63;;;10.40;99.90;;;;;;6134199;23;20686;-82
2023/11/06 23:25:37;;;;;;;4.63;2.47;;;10.10;99.90;;;;;;6134185;23;20473;-82
2023/11/06 23:28:06;;;;;;;6.97;2.87;;;10.10;99.90;;;;;;6133816;23;20171;-82
2023/11/06 23:30:33;;;;;;;8.30;3.10;;;10.00;99.90;;;;;;6184531;23;20187;-83
2023/11/06 23:33:00;;;;;;;7.07;3.03;;;9.90;99.90;;;;;;6133985;23;20211;-82
2023/11/06 23:35:28;;;;;;;5.43;2.50;;;9.80;99.90;;;;;;6158521;23;20182;-83
2023/11/06 23:37:55;;;;;;;9.43;2.60;;;10.00;99.90;;;;;;6158405;23;20612;-88
2023/11/06 23:40:22;;;;;;;5.43;2.50;;;9.70;99.90;;;;;;6133881;23;20214;-88
2023/11/06 23:42:50;;;;;;;7.43;2.90;;;9.80;99.90;;;;;;6158187;23;20206;-87
2023/11/06 23:45:17;;;;;;;5.57;2.60;;;9.60;99.90;;;;;;6158700;23;20493;-82
2023/11/06 23:47:45;;;;;;;6.93;2.53;;;9.50;99.90;;;;;;6184710;23;20195;-84
2023/11/06 23:50:12;;;;;;;6.83;2.60;;;9.70;99.90;;;;;;6185180;23;20168;-88
2023/11/06 23:52:40;;;;;;;7.33;2.90;;;9.50;99.90;;;;;;6184751;23;20223;-87
2023/11/06 23:55:07;;;;;;;7.80;2.80;;;9.40;99.90;;;;;;6158331;23;20168;-84
2023/11/06 23:57:35;;;;;;;8.00;3.10;;;9.40;99.90;;;;;;6158336;23;20172;-83
